sensor_id;sensor_type;location;lat;lon;timestamp;temperature;humidity
43607;DHT22;29197;44.788;10.366;2023-06-22T00:01:00;27.00;99.90
43607;DHT22;29197;44.788;10.366;2023-06-22T00:03:49;27.20;99.90
43607;DHT22;29197;44.788;10.366;2023-06-22T00:06:38;27.30;99.90
43607;DHT22;29197;44.788;10.366;2023-06-22T00:09:26;27.20;99.90
43607;DHT22;29197;44.788;10.366;2023-06-22T00:12:16;27.10;99.90
43607;DHT22;29197;44.788;10.366;2023-06-22T00:15:05;27.00;99.90
43607;DHT22;29197;44.788;10.366;2023-06-22T00:17:54;26.90;99.90
43607;DHT22;29197;44.788;10.366;2023-06-22T00:20:44;26.90;99.90
43607;DHT22;29197;44.788;10.366;2023-06-22T00:23:33;26.90;99.90
43607;DHT22;29197;44.788;10.366;2023-06-22T00:26:22;27.00;99.90
43607;DHT22;29197;44.788;10.366;2023-06-22T00:29:13;27.10;99.90
43607;DHT22;29197;44.788;10.366;2023-06-22T00:32:02;27.20;99.90
43607;DHT22;29197;44.788;10.366;2023-06-22T00:34:50;27.20;99.90
43607;DHT22;29197;44.788;10.366;2023-06-22T00:37:39;27.10;99.90
43607;DHT22;29197;44.788;10.366;2023-06-22T00:40:29;27.10;99.90
43607;DHT22;29197;44.788;10.366;2023-06-22T00:43:18;27.20;99.90
43607;DHT22;29197;44.788;10.366;2023-06-22T00:46:08;27.20;99.90
43607;DHT22;29197;44.788;10.366;2023-06-22T00:48:57;27.20;99.90
43607;DHT22;29197;44.788;10.366;2023-06-22T00:51:46;27.20;99.90
43607;DHT22;29197;44.788;10.366;2023-06-22T00:54:35;27.20;99.90
43607;DHT22;29197;44.788;10.366;2023-06-22T00:57:24;27.10;99.90
43607;DHT22;29197;44.788;10.366;2023-06-22T01:00:16;26.90;99.90
43607;DHT22;29197;44.788;10.366;2023-06-22T01:03:08;27.00;99.90
43607;DHT22;29197;44.788;10.366;2023-06-22T01:06:02;27.00;99.90
43607;DHT22;29197;44.788;10.366;2023-06-22T01:09:00;27.10;99.90
43607;DHT22;29197;44.788;10.366;2023-06-22T01:11:56;27.10;99.90
43607;DHT22;29197;44.788;10.366;2023-06-22T01:14:50;27.00;99.90
43607;DHT22;29197;44.788;10.366;2023-06-22T01:17:43;26.90;99.90
43607;DHT22;29197;44.788;10.366;2023-06-22T01:20:34;26.90;99.90
43607;DHT22;29197;44.788;10.366;2023-06-22T01:23:29;26.90;99.90
43607;DHT22;29197;44.788;10.366;2023-06-22T01:26:32;26.90;99.90
43607;DHT22;29197;44.788;10.366;2023-06-22T01:29:27;26.80;99.90
43607;DHT22;29197;44.788;10.366;2023-06-22T01:32:16;26.90;99.90
43607;DHT22;29197;44.788;10.366;2023-06-22T01:35:07;27.00;99.90
43607;DHT22;29197;44.788;10.366;2023-06-22T01:37:56;27.00;99.90
43607;DHT22;29197;44.788;10.366;2023-06-22T01:40:45;27.10;99.90
43607;DHT22;29197;44.788;10.366;2023-06-22T01:43:34;27.10;99.90
43607;DHT22;29197;44.788;10.366;2023-06-22T01:46:25;27.10;99.90
43607;DHT22;29197;44.788;10.366;2023-06-22T01:49:14;26.70;99.90
43607;DHT22;29197;44.788;10.366;2023-06-22T01:52:03;27.20;99.90
43607;DHT22;29197;44.788;10.366;2023-06-22T01:54:52;27.20;99.90
43607;DHT22;29197;44.788;10.366;2023-06-22T01:57:41;27.40;99.90
43607;DHT22;29197;44.788;10.366;2023-06-22T02:00:33;27.20;99.90
43607;DHT22;29197;44.788;10.366;2023-06-22T02:03:30;27.10;99.90
43607;DHT22;29197;44.788;10.366;2023-06-22T02:06:27;27.20;99.90
43607;DHT22;29197;44.788;10.366;2023-06-22T02:09:23;27.20;99.90
43607;DHT22;29197;44.788;10.366;2023-06-22T02:12:17;27.10;99.90
43607;DHT22;29197;44.788;10.366;2023-06-22T02:15:07;27.10;99.90
43607;DHT22;29197;44.788;10.366;2023-06-22T02:17:57;27.10;99.90
43607;DHT22;29197;44.788;10.366;2023-06-22T02:20:47;27.10;99.90
43607;DHT22;29197;44.788;10.366;2023-06-22T02:23:35;27.00;99.90
43607;DHT22;29197;44.788;10.366;2023-06-22T02:26:25;27.00;99.90
43607;DHT22;29197;44.788;10.366;2023-06-22T02:29:14;26.90;99.90
43607;DHT22;29197;44.788;10.366;2023-06-22T02:32:03;27.00;99.90
43607;DHT22;29197;44.788;10.366;2023-06-22T02:34:52;27.00;99.90
43607;DHT22;29197;44.788;10.366;2023-06-22T02:37:42;27.00;99.90
43607;DHT22;29197;44.788;10.366;2023-06-22T02:40:31;27.00;99.90
43607;DHT22;29197;44.788;10.366;2023-06-22T02:43:20;26.90;99.90
43607;DHT22;29197;44.788;10.366;2023-06-22T02:46:09;27.10;99.90
43607;DHT22;29197;44.788;10.366;2023-06-22T02:48:57;27.00;99.90
43607;DHT22;29197;44.788;10.366;2023-06-22T02:51:47;27.00;99.90
43607;DHT22;29197;44.788;10.366;2023-06-22T02:54:37;26.90;99.90
43607;DHT22;29197;44.788;10.366;2023-06-22T02:57:26;26.90;99.90
43607;DHT22;29197;44.788;10.366;2023-06-22T03:00:15;26.90;99.90
43607;DHT22;29197;44.788;10.366;2023-06-22T03:03:05;26.90;99.90
43607;DHT22;29197;44.788;10.366;2023-06-22T03:05:54;26.90;99.90
43607;DHT22;29197;44.788;10.366;2023-06-22T03:08:42;26.90;99.90
43607;DHT22;29197;44.788;10.366;2023-06-22T03:11:33;26.90;99.90
43607;DHT22;29197;44.788;10.366;2023-06-22T03:14:22;26.90;99.90
43607;DHT22;29197;44.788;10.366;2023-06-22T03:17:11;26.90;99.90
43607;DHT22;29197;44.788;10.366;2023-06-22T03:19:59;26.90;99.90
43607;DHT22;29197;44.788;10.366;2023-06-22T03:22:48;26.90;99.90
43607;DHT22;29197;44.788;10.366;2023-06-22T03:25:36;26.90;99.90
43607;DHT22;29197;44.788;10.366;2023-06-22T03:28:26;26.90;99.90
43607;DHT22;29197;44.788;10.366;2023-06-22T03:31:15;26.90;99.90
43607;DHT22;29197;44.788;10.366;2023-06-22T03:34:08;26.80;99.90
43607;DHT22;29197;44.788;10.366;2023-06-22T03:36:57;26.80;99.90
43607;DHT22;29197;44.788;10.366;2023-06-22T03:39:45;26.60;99.90
43607;DHT22;29197;44.788;10.366;2023-06-22T03:48:13;26.10;99.90
43607;DHT22;29197;44.788;10.366;2023-06-22T03:51:02;26.10;99.90
43607;DHT22;29197;44.788;10.366;2023-06-22T03:56:40;25.80;99.90
43607;DHT22;29197;44.788;10.366;2023-06-22T03:59:29;25.70;99.90
43607;DHT22;29197;44.788;10.366;2023-06-22T04:05:08;25.50;99.90
43607;DHT22;29197;44.788;10.366;2023-06-22T04:07:57;25.50;99.90
43607;DHT22;29197;44.788;10.366;2023-06-22T04:10:46;25.50;99.90
43607;DHT22;29197;44.788;10.366;2023-06-22T04:13:34;25.30;99.90
43607;DHT22;29197;44.788;10.366;2023-06-22T04:16:23;25.30;99.90
43607;DHT22;29197;44.788;10.366;2023-06-22T04:19:13;25.20;99.90
43607;DHT22;29197;44.788;10.366;2023-06-22T04:22:04;25.20;99.90
43607;DHT22;29197;44.788;10.366;2023-06-22T04:24:54;25.20;99.90
43607;DHT22;29197;44.788;10.366;2023-06-22T04:33:21;25.90;99.90
43607;DHT22;29197;44.788;10.366;2023-06-22T04:36:11;26.00;99.90
43607;DHT22;29197;44.788;10.366;2023-06-22T04:39:01;26.20;99.90
43607;DHT22;29197;44.788;10.366;2023-06-22T04:41:49;26.30;99.90
43607;DHT22;29197;44.788;10.366;2023-06-22T04:44:38;26.10;99.90
43607;DHT22;29197;44.788;10.366;2023-06-22T04:47:29;26.00;99.90
43607;DHT22;29197;44.788;10.366;2023-06-22T04:50:17;25.80;99.90
43607;DHT22;29197;44.788;10.366;2023-06-22T04:53:09;25.60;99.90
43607;DHT22;29197;44.788;10.366;2023-06-22T04:55:59;25.60;99.90
43607;DHT22;29197;44.788;10.366;2023-06-22T04:58:48;25.70;99.90
43607;DHT22;29197;44.788;10.366;2023-06-22T05:01:39;25.70;99.90
43607;DHT22;29197;44.788;10.366;2023-06-22T05:04:28;25.70;99.90
43607;DHT22;29197;44.788;10.366;2023-06-22T05:07:19;25.90;99.90
43607;DHT22;29197;44.788;10.366;2023-06-22T05:10:10;26.10;99.90
43607;DHT22;29197;44.788;10.366;2023-06-22T05:12:59;26.30;99.90
43607;DHT22;29197;44.788;10.366;2023-06-22T05:15:48;26.40;99.90
43607;DHT22;29197;44.788;10.366;2023-06-22T05:18:36;26.40;99.90
43607;DHT22;29197;44.788;10.366;2023-06-22T05:24:15;26.80;99.90
43607;DHT22;29197;44.788;10.366;2023-06-22T05:27:05;26.20;99.90
43607;DHT22;29197;44.788;10.366;2023-06-22T05:29:54;26.10;99.90
43607;DHT22;29197;44.788;10.366;2023-06-22T05:32:42;26.00;99.90
43607;DHT22;29197;44.788;10.366;2023-06-22T05:38:20;25.90;99.90
43607;DHT22;29197;44.788;10.366;2023-06-22T05:46:47;25.40;99.90
43607;DHT22;29197;44.788;10.366;2023-06-22T05:49:37;25.60;99.90
43607;DHT22;29197;44.788;10.366;2023-06-22T05:55:15;25.90;99.90
43607;DHT22;29197;44.788;10.366;2023-06-22T05:58:05;26.10;99.90
43607;DHT22;29197;44.788;10.366;2023-06-22T06:00:56;26.20;99.90
43607;DHT22;29197;44.788;10.366;2023-06-22T06:03:44;26.30;99.90
43607;DHT22;29197;44.788;10.366;2023-06-22T06:06:33;26.20;99.90
43607;DHT22;29197;44.788;10.366;2023-06-22T06:09:24;26.30;99.90
43607;DHT22;29197;44.788;10.366;2023-06-22T06:12:13;26.30;99.90
43607;DHT22;29197;44.788;10.366;2023-06-22T06:15:01;26.40;99.90
43607;DHT22;29197;44.788;10.366;2023-06-22T06:20:41;26.50;99.90
43607;DHT22;29197;44.788;10.366;2023-06-22T06:23:30;26.50;99.90
43607;DHT22;29197;44.788;10.366;2023-06-22T06:32:04;27.00;99.90
43607;DHT22;29197;44.788;10.366;2023-06-22T06:34:55;27.30;99.90
43607;DHT22;29197;44.788;10.366;2023-06-22T06:37:45;27.40;99.90
43607;DHT22;29197;44.788;10.366;2023-06-22T06:40:33;27.50;99.90
43607;DHT22;29197;44.788;10.366;2023-06-22T06:43:22;27.70;99.90
43607;DHT22;29197;44.788;10.366;2023-06-22T06:46:11;27.70;99.90
43607;DHT22;29197;44.788;10.366;2023-06-22T06:49:00;27.90;99.90
43607;DHT22;29197;44.788;10.366;2023-06-22T06:51:50;28.00;99.90
43607;DHT22;29197;44.788;10.366;2023-06-22T06:54:38;28.00;99.90
43607;DHT22;29197;44.788;10.366;2023-06-22T06:57:29;28.10;99.90
43607;DHT22;29197;44.788;10.366;2023-06-22T07:17:14;29.30;99.90
43607;DHT22;29197;44.788;10.366;2023-06-22T07:20:04;29.20;99.90
43607;DHT22;29197;44.788;10.366;2023-06-22T07:22:57;29.30;99.90
43607;DHT22;29197;44.788;10.366;2023-06-22T07:25:48;29.40;99.90
43607;DHT22;29197;44.788;10.366;2023-06-22T07:28:36;29.60;99.90
43607;DHT22;29197;44.788;10.366;2023-06-22T07:31:25;29.60;99.90
43607;DHT22;29197;44.788;10.366;2023-06-22T07:34:14;29.60;99.90
43607;DHT22;29197;44.788;10.366;2023-06-22T07:37:03;29.60;99.90
43607;DHT22;29197;44.788;10.366;2023-06-22T07:39:52;30.00;99.90
43607;DHT22;29197;44.788;10.366;2023-06-22T07:42:46;30.10;99.90
43607;DHT22;29197;44.788;10.366;2023-06-22T07:45:38;30.10;99.90
43607;DHT22;29197;44.788;10.366;2023-06-22T07:48:29;30.10;99.90
43607;DHT22;29197;44.788;10.366;2023-06-22T07:51:17;29.90;99.90
43607;DHT22;29197;44.788;10.366;2023-06-22T07:54:06;29.70;99.90
43607;DHT22;29197;44.788;10.366;2023-06-22T07:56:55;29.80;99.90
43607;DHT22;29197;44.788;10.366;2023-06-22T07:59:45;30.00;99.90
43607;DHT22;29197;44.788;10.366;2023-06-22T08:02:33;30.10;99.90
43607;DHT22;29197;44.788;10.366;2023-06-22T08:05:22;30.10;99.90
43607;DHT22;29197;44.788;10.366;2023-06-22T08:08:10;30.30;99.90
43607;DHT22;29197;44.788;10.366;2023-06-22T08:16:38;30.50;99.90
43607;DHT22;29197;44.788;10.366;2023-06-22T08:19:27;30.60;99.90
43607;DHT22;29197;44.788;10.366;2023-06-22T08:22:16;30.60;99.90
43607;DHT22;29197;44.788;10.366;2023-06-22T08:25:07;30.60;99.90
43607;DHT22;29197;44.788;10.366;2023-06-22T08:27:56;30.70;99.90
43607;DHT22;29197;44.788;10.366;2023-06-22T08:30:44;30.70;99.90
43607;DHT22;29197;44.788;10.366;2023-06-22T08:33:34;30.70;99.90
43607;DHT22;29197;44.788;10.366;2023-06-22T08:39:20;30.80;99.90
43607;DHT22;29197;44.788;10.366;2023-06-22T08:42:08;30.80;99.90
43607;DHT22;29197;44.788;10.366;2023-06-22T08:44:57;30.80;99.90
43607;DHT22;29197;44.788;10.366;2023-06-22T08:47:46;30.90;99.90
43607;DHT22;29197;44.788;10.366;2023-06-22T08:50:36;30.90;99.90
43607;DHT22;29197;44.788;10.366;2023-06-22T08:53:24;31.00;99.90
43607;DHT22;29197;44.788;10.366;2023-06-22T08:56:13;31.00;99.90
43607;DHT22;29197;44.788;10.366;2023-06-22T08:59:01;30.90;99.90
43607;DHT22;29197;44.788;10.366;2023-06-22T09:01:50;30.90;99.90
43607;DHT22;29197;44.788;10.366;2023-06-22T09:04:38;31.00;99.90
43607;DHT22;29197;44.788;10.366;2023-06-22T09:10:17;31.10;99.90
43607;DHT22;29197;44.788;10.366;2023-06-22T09:13:06;31.20;99.90
43607;DHT22;29197;44.788;10.366;2023-06-22T09:15:55;31.20;99.90
43607;DHT22;29197;44.788;10.366;2023-06-22T09:18:47;31.20;99.90
43607;DHT22;29197;44.788;10.366;2023-06-22T09:21:36;31.20;99.90
43607;DHT22;29197;44.788;10.366;2023-06-22T09:24:26;31.10;99.90
43607;DHT22;29197;44.788;10.366;2023-06-22T09:27:15;31.20;99.90
43607;DHT22;29197;44.788;10.366;2023-06-22T09:30:04;31.20;99.90
43607;DHT22;29197;44.788;10.366;2023-06-22T09:32:53;31.30;99.90
43607;DHT22;29197;44.788;10.366;2023-06-22T09:35:42;31.30;99.90
43607;DHT22;29197;44.788;10.366;2023-06-22T10:18:03;31.80;99.90
43607;DHT22;29197;44.788;10.366;2023-06-22T10:20:52;32.00;99.90
43607;DHT22;29197;44.788;10.366;2023-06-22T10:23:41;32.00;99.90
43607;DHT22;29197;44.788;10.366;2023-06-22T10:26:29;32.00;99.90
43607;DHT22;29197;44.788;10.366;2023-06-22T10:29:18;32.10;99.90
43607;DHT22;29197;44.788;10.366;2023-06-22T10:32:08;32.10;99.90
43607;DHT22;29197;44.788;10.366;2023-06-22T10:34:57;32.10;99.90
43607;DHT22;29197;44.788;10.366;2023-06-22T10:37:46;32.20;99.90
43607;DHT22;29197;44.788;10.366;2023-06-22T10:40:35;32.30;99.90
43607;DHT22;29197;44.788;10.366;2023-06-22T10:43:23;32.40;99.90
43607;DHT22;29197;44.788;10.366;2023-06-22T10:46:12;32.50;99.90
43607;DHT22;29197;44.788;10.366;2023-06-22T10:49:02;32.60;99.90
43607;DHT22;29197;44.788;10.366;2023-06-22T10:51:51;32.70;99.90
43607;DHT22;29197;44.788;10.366;2023-06-22T10:54:39;32.80;99.90
43607;DHT22;29197;44.788;10.366;2023-06-22T10:57:28;32.80;99.90
43607;DHT22;29197;44.788;10.366;2023-06-22T11:00:17;32.90;99.90
43607;DHT22;29197;44.788;10.366;2023-06-22T11:14:41;33.30;99.90
43607;DHT22;29197;44.788;10.366;2023-06-22T11:17:30;33.40;99.90
43607;DHT22;29197;44.788;10.366;2023-06-22T11:20:19;33.50;99.90
43607;DHT22;29197;44.788;10.366;2023-06-22T11:25:59;33.80;99.90
43607;DHT22;29197;44.788;10.366;2023-06-22T11:28:47;33.80;99.90
43607;DHT22;29197;44.788;10.366;2023-06-22T11:31:36;33.90;99.90
43607;DHT22;29197;44.788;10.366;2023-06-22T11:34:25;34.00;99.90
43607;DHT22;29197;44.788;10.366;2023-06-22T11:37:13;33.90;99.90
43607;DHT22;29197;44.788;10.366;2023-06-22T11:40:04;34.00;99.90
43607;DHT22;29197;44.788;10.366;2023-06-22T11:42:56;34.00;99.90
43607;DHT22;29197;44.788;10.366;2023-06-22T11:45:44;34.10;99.90
43607;DHT22;29197;44.788;10.366;2023-06-22T11:48:33;34.20;99.90
43607;DHT22;29197;44.788;10.366;2023-06-22T11:51:21;34.40;99.90
43607;DHT22;29197;44.788;10.366;2023-06-22T11:54:10;34.50;99.90
43607;DHT22;29197;44.788;10.366;2023-06-22T11:57:00;34.70;99.90
43607;DHT22;29197;44.788;10.366;2023-06-22T11:59:49;34.80;99.90
43607;DHT22;29197;44.788;10.366;2023-06-22T12:08:15;34.90;99.90
43607;DHT22;29197;44.788;10.366;2023-06-22T12:11:04;35.20;99.90
43607;DHT22;29197;44.788;10.366;2023-06-22T13:15:59;34.70;99.90
43607;DHT22;29197;44.788;10.366;2023-06-22T13:18:47;34.70;99.90
43607;DHT22;29197;44.788;10.366;2023-06-22T13:21:37;34.40;99.90
43607;DHT22;29197;44.788;10.366;2023-06-22T13:24:26;34.40;99.90
43607;DHT22;29197;44.788;10.366;2023-06-22T13:27:15;34.50;99.90
43607;DHT22;29197;44.788;10.366;2023-06-22T13:30:04;34.70;99.90
43607;DHT22;29197;44.788;10.366;2023-06-22T13:32:52;34.70;99.90
43607;DHT22;29197;44.788;10.366;2023-06-22T13:35:41;34.60;99.90
43607;DHT22;29197;44.788;10.366;2023-06-22T13:38:32;34.50;99.90
43607;DHT22;29197;44.788;10.366;2023-06-22T13:41:20;34.40;99.90
43607;DHT22;29197;44.788;10.366;2023-06-22T13:44:09;34.20;99.90
43607;DHT22;29197;44.788;10.366;2023-06-22T13:46:57;34.00;99.90
43607;DHT22;29197;44.788;10.366;2023-06-22T13:49:46;33.90;99.90
43607;DHT22;29197;44.788;10.366;2023-06-22T13:52:35;33.80;99.90
43607;DHT22;29197;44.788;10.366;2023-06-22T13:55:25;33.70;99.90
43607;DHT22;29197;44.788;10.366;2023-06-22T13:58:13;33.60;99.90
43607;DHT22;29197;44.788;10.366;2023-06-22T14:01:02;33.60;99.90
43607;DHT22;29197;44.788;10.366;2023-06-22T14:03:51;33.60;99.90
43607;DHT22;29197;44.788;10.366;2023-06-22T14:06:39;33.50;99.90
43607;DHT22;29197;44.788;10.366;2023-06-22T14:09:28;33.40;99.90
43607;DHT22;29197;44.788;10.366;2023-06-22T14:12:18;33.40;99.90
43607;DHT22;29197;44.788;10.366;2023-06-22T14:15:07;33.40;99.90
43607;DHT22;29197;44.788;10.366;2023-06-22T14:17:56;33.40;99.90
43607;DHT22;29197;44.788;10.366;2023-06-22T14:20:44;33.40;99.90
43607;DHT22;29197;44.788;10.366;2023-06-22T14:23:34;33.40;99.90
43607;DHT22;29197;44.788;10.366;2023-06-22T14:26:24;33.50;99.90
43607;DHT22;29197;44.788;10.366;2023-06-22T14:29:14;33.60;99.90
43607;DHT22;29197;44.788;10.366;2023-06-22T14:32:04;33.60;99.90
43607;DHT22;29197;44.788;10.366;2023-06-22T14:34:53;33.60;99.90
43607;DHT22;29197;44.788;10.366;2023-06-22T14:37:42;33.60;99.90
43607;DHT22;29197;44.788;10.366;2023-06-22T14:40:30;33.60;99.90
43607;DHT22;29197;44.788;10.366;2023-06-22T14:43:42;33.50;99.90
43607;DHT22;29197;44.788;10.366;2023-06-22T14:46:32;33.40;99.90
43607;DHT22;29197;44.788;10.366;2023-06-22T14:49:21;33.30;99.90
43607;DHT22;29197;44.788;10.366;2023-06-22T14:52:09;33.20;99.90
43607;DHT22;29197;44.788;10.366;2023-06-22T14:54:58;33.30;99.90
43607;DHT22;29197;44.788;10.366;2023-06-22T14:57:46;33.20;99.90
43607;DHT22;29197;44.788;10.366;2023-06-22T15:00:35;33.20;99.90
43607;DHT22;29197;44.788;10.366;2023-06-22T15:06:16;33.10;99.90
43607;DHT22;29197;44.788;10.366;2023-06-22T15:09:05;33.00;99.90
43607;DHT22;29197;44.788;10.366;2023-06-22T15:11:53;33.00;99.90
43607;DHT22;29197;44.788;10.366;2023-06-22T15:14:42;33.00;99.90
43607;DHT22;29197;44.788;10.366;2023-06-22T15:17:30;33.00;99.90
43607;DHT22;29197;44.788;10.366;2023-06-22T15:20:21;33.00;99.90
43607;DHT22;29197;44.788;10.366;2023-06-22T15:23:09;33.10;99.90
43607;DHT22;29197;44.788;10.366;2023-06-22T15:26:00;33.10;99.90
43607;DHT22;29197;44.788;10.366;2023-06-22T15:28:49;33.20;99.90
43607;DHT22;29197;44.788;10.366;2023-06-22T15:31:37;33.10;99.90
43607;DHT22;29197;44.788;10.366;2023-06-22T15:34:26;33.10;99.90
43607;DHT22;29197;44.788;10.366;2023-06-22T15:37:16;33.00;99.90
43607;DHT22;29197;44.788;10.366;2023-06-22T15:40:06;33.00;99.90
43607;DHT22;29197;44.788;10.366;2023-06-22T15:42:55;33.00;99.90
43607;DHT22;29197;44.788;10.366;2023-06-22T15:45:44;33.00;99.90
43607;DHT22;29197;44.788;10.366;2023-06-22T15:48:32;32.90;99.90
43607;DHT22;29197;44.788;10.366;2023-06-22T15:51:21;32.90;99.90
43607;DHT22;29197;44.788;10.366;2023-06-22T15:54:11;32.90;99.90
43607;DHT22;29197;44.788;10.366;2023-06-22T15:57:00;32.90;99.90
43607;DHT22;29197;44.788;10.366;2023-06-22T15:59:48;32.90;99.90
43607;DHT22;29197;44.788;10.366;2023-06-22T16:02:37;32.90;99.90
43607;DHT22;29197;44.788;10.366;2023-06-22T16:05:25;32.90;99.90
43607;DHT22;29197;44.788;10.366;2023-06-22T16:08:14;32.90;99.90
43607;DHT22;29197;44.788;10.366;2023-06-22T16:11:04;32.90;99.90
43607;DHT22;29197;44.788;10.366;2023-06-22T16:13:52;32.90;99.90
43607;DHT22;29197;44.788;10.366;2023-06-22T16:16:41;32.90;99.90
43607;DHT22;29197;44.788;10.366;2023-06-22T16:19:30;32.90;99.90
43607;DHT22;29197;44.788;10.366;2023-06-22T16:22:18;32.90;99.90
43607;DHT22;29197;44.788;10.366;2023-06-22T16:25:07;33.00;99.90
43607;DHT22;29197;44.788;10.366;2023-06-22T16:27:57;33.00;99.90
43607;DHT22;29197;44.788;10.366;2023-06-22T16:30:46;33.00;99.90
43607;DHT22;29197;44.788;10.366;2023-06-22T16:33:38;33.20;99.90
43607;DHT22;29197;44.788;10.366;2023-06-22T16:36:33;33.20;99.90
43607;DHT22;29197;44.788;10.366;2023-06-22T16:39:22;33.20;99.90
43607;DHT22;29197;44.788;10.366;2023-06-22T16:42:11;33.20;99.90
43607;DHT22;29197;44.788;10.366;2023-06-22T16:45:01;33.30;99.90
43607;DHT22;29197;44.788;10.366;2023-06-22T16:47:50;33.30;99.90
43607;DHT22;29197;44.788;10.366;2023-06-22T16:50:39;33.40;99.90
43607;DHT22;29197;44.788;10.366;2023-06-22T16:53:28;33.40;99.90
43607;DHT22;29197;44.788;10.366;2023-06-22T16:56:16;33.40;99.90
43607;DHT22;29197;44.788;10.366;2023-06-22T16:59:05;33.50;99.90
43607;DHT22;29197;44.788;10.366;2023-06-22T17:01:56;33.80;99.90
43607;DHT22;29197;44.788;10.366;2023-06-22T17:04:45;33.40;99.90
43607;DHT22;29197;44.788;10.366;2023-06-22T17:07:36;33.40;99.90
43607;DHT22;29197;44.788;10.366;2023-06-22T17:10:26;33.30;99.90
43607;DHT22;29197;44.788;10.366;2023-06-22T17:13:15;33.30;99.90
43607;DHT22;29197;44.788;10.366;2023-06-22T17:16:05;33.20;99.90
43607;DHT22;29197;44.788;10.366;2023-06-22T17:18:58;33.10;99.90
43607;DHT22;29197;44.788;10.366;2023-06-22T17:21:51;33.00;99.90
43607;DHT22;29197;44.788;10.366;2023-06-22T17:24:40;33.00;99.90
43607;DHT22;29197;44.788;10.366;2023-06-22T17:27:29;32.90;99.90
43607;DHT22;29197;44.788;10.366;2023-06-22T17:30:18;32.80;99.90
43607;DHT22;29197;44.788;10.366;2023-06-22T17:33:08;32.80;99.90
43607;DHT22;29197;44.788;10.366;2023-06-22T17:36:02;32.70;99.90
43607;DHT22;29197;44.788;10.366;2023-06-22T17:38:51;32.70;99.90
43607;DHT22;29197;44.788;10.366;2023-06-22T17:41:40;32.70;99.90
43607;DHT22;29197;44.788;10.366;2023-06-22T17:44:30;32.60;99.90
43607;DHT22;29197;44.788;10.366;2023-06-22T17:47:25;32.60;99.90
43607;DHT22;29197;44.788;10.366;2023-06-22T17:50:13;32.50;99.90
43607;DHT22;29197;44.788;10.366;2023-06-22T17:53:04;32.50;99.90
43607;DHT22;29197;44.788;10.366;2023-06-22T17:58:50;32.40;99.90
43607;DHT22;29197;44.788;10.366;2023-06-22T18:01:40;32.40;99.90
43607;DHT22;29197;44.788;10.366;2023-06-22T18:04:32;32.30;99.90
43607;DHT22;29197;44.788;10.366;2023-06-22T18:07:20;32.30;99.90
43607;DHT22;29197;44.788;10.366;2023-06-22T18:10:13;32.20;99.90
43607;DHT22;29197;44.788;10.366;2023-06-22T18:13:02;32.10;99.90
43607;DHT22;29197;44.788;10.366;2023-06-22T18:15:52;32.10;99.90
43607;DHT22;29197;44.788;10.366;2023-06-22T18:18:41;32.10;99.90
43607;DHT22;29197;44.788;10.366;2023-06-22T18:21:30;32.00;99.90
43607;DHT22;29197;44.788;10.366;2023-06-22T18:24:19;32.00;99.90
43607;DHT22;29197;44.788;10.366;2023-06-22T18:27:10;32.00;99.90
43607;DHT22;29197;44.788;10.366;2023-06-22T18:29:59;32.00;99.90
43607;DHT22;29197;44.788;10.366;2023-06-22T18:32:49;32.00;99.90
43607;DHT22;29197;44.788;10.366;2023-06-22T18:35:38;31.90;99.90
43607;DHT22;29197;44.788;10.366;2023-06-22T18:38:27;31.90;99.90
43607;DHT22;29197;44.788;10.366;2023-06-22T18:41:21;31.90;99.90
43607;DHT22;29197;44.788;10.366;2023-06-22T18:44:19;31.90;99.90
43607;DHT22;29197;44.788;10.366;2023-06-22T18:47:10;31.90;99.90
43607;DHT22;29197;44.788;10.366;2023-06-22T18:50:06;31.90;99.90
43607;DHT22;29197;44.788;10.366;2023-06-22T18:53:02;31.90;99.90
43607;DHT22;29197;44.788;10.366;2023-06-22T18:55:51;31.80;99.90
43607;DHT22;29197;44.788;10.366;2023-06-22T18:58:58;31.80;99.90
43607;DHT22;29197;44.788;10.366;2023-06-22T19:01:48;31.80;99.90
43607;DHT22;29197;44.788;10.366;2023-06-22T19:10:42;31.40;99.90
43607;DHT22;29197;44.788;10.366;2023-06-22T19:13:30;31.30;99.90
43607;DHT22;29197;44.788;10.366;2023-06-22T19:16:28;31.30;99.90
43607;DHT22;29197;44.788;10.366;2023-06-22T19:19:19;31.30;99.90
43607;DHT22;29197;44.788;10.366;2023-06-22T19:22:09;31.30;99.90
43607;DHT22;29197;44.788;10.366;2023-06-22T19:24:59;31.20;99.90
43607;DHT22;29197;44.788;10.366;2023-06-22T19:36:21;30.70;99.90
43607;DHT22;29197;44.788;10.366;2023-06-22T19:42:00;30.50;99.90
43607;DHT22;29197;44.788;10.366;2023-06-22T19:44:48;30.50;99.90
43607;DHT22;29197;44.788;10.366;2023-06-22T19:47:38;30.40;99.90
43607;DHT22;29197;44.788;10.366;2023-06-22T20:16:08;29.90;99.90
43607;DHT22;29197;44.788;10.366;2023-06-22T20:19:06;29.70;99.90
43607;DHT22;29197;44.788;10.366;2023-06-22T20:21:54;29.60;99.90
43607;DHT22;29197;44.788;10.366;2023-06-22T20:24:45;29.50;99.90
43607;DHT22;29197;44.788;10.366;2023-06-22T20:27:35;29.50;99.90
43607;DHT22;29197;44.788;10.366;2023-06-22T20:38:54;29.20;99.90
43607;DHT22;29197;44.788;10.366;2023-06-22T20:41:43;29.30;99.90
43607;DHT22;29197;44.788;10.366;2023-06-22T20:44:33;29.30;99.90
43607;DHT22;29197;44.788;10.366;2023-06-22T20:50:11;29.10;99.90
43607;DHT22;29197;44.788;10.366;2023-06-22T20:53:00;29.00;99.90
43607;DHT22;29197;44.788;10.366;2023-06-22T20:55:50;29.10;99.90
43607;DHT22;29197;44.788;10.366;2023-06-22T20:58:38;29.00;99.90
43607;DHT22;29197;44.788;10.366;2023-06-22T21:01:28;29.00;99.90
43607;DHT22;29197;44.788;10.366;2023-06-22T21:04:20;28.90;99.90
43607;DHT22;29197;44.788;10.366;2023-06-22T21:07:09;28.90;99.90
43607;DHT22;29197;44.788;10.366;2023-06-22T21:09:57;29.00;99.90
43607;DHT22;29197;44.788;10.366;2023-06-22T21:12:47;28.90;99.90
43607;DHT22;29197;44.788;10.366;2023-06-22T21:15:36;28.90;99.90
43607;DHT22;29197;44.788;10.366;2023-06-22T21:18:26;28.90;99.90
43607;DHT22;29197;44.788;10.366;2023-06-22T21:21:15;29.10;99.90
43607;DHT22;29197;44.788;10.366;2023-06-22T21:24:04;29.20;99.90
43607;DHT22;29197;44.788;10.366;2023-06-22T21:26:52;29.20;99.90
43607;DHT22;29197;44.788;10.366;2023-06-22T21:29:41;29.10;99.90
43607;DHT22;29197;44.788;10.366;2023-06-22T21:32:30;28.80;99.90
43607;DHT22;29197;44.788;10.366;2023-06-22T21:35:20;28.80;99.90
43607;DHT22;29197;44.788;10.366;2023-06-22T21:38:08;28.80;99.90
43607;DHT22;29197;44.788;10.366;2023-06-22T21:40:57;28.80;99.90
43607;DHT22;29197;44.788;10.366;2023-06-22T21:43:47;28.80;99.90